Portada
METAR-TAF:

METAR-TAF

Aeroports :

Khartum, Sudan

latitud: 15-36N, longitud: 032-33E, altitud: 382 m

Observació

L'informe es va fer fa 30 minuts, a les 15:30 UTC
Vent 12 kt del Sud/Sud-Oest
Temperatura 36°C
Humitat 31%
Pressió 1006 hPa
Visibilitat: 8000 m

METAR: HSSS 121530Z 20012KT 8000 36/16 Q1006 NOSIG

Hora: 18:00 (16:00 UTC)

Pronòstic

L'informe es va fer fa 5 hores i 0 minuts, a les 11:00 UTC
Pronòstic vàlid del 12 a les 12 UTC al 13 a les 18 UTC
Vent 8 kt del Sud-Oest amb ràfegues de 20 kt
Visibilitat: 6000 m
Temporalment
l' 12 a les 12 UTC al 12 a les 18 UTC
Visibilitat 10 km o més
Escasses núvols a una alçada de 4000 ft
Núvols disperses a una alçada de 14000 ft

TAF: HSSS 121100Z 1212/1318 22008G20KT 6000 NSC TEMPO 1212/1218 9999 FEW040 SCT140

Observacions i pronòstics meteorològics de més de 4000 aeroports (METAR i TAF).

Les estacions disponibles són els punts grocs i vermells al mapa.

Posi el ratolí al punt desitjat per veure el nom de l'estació.

Feu clic per veure les observacions i els pronòstics meteorològics.

Per canviar el mapa: feu clic els botons verds amb una creu de color negre per apropar; al botó verd amb un guió per allunyar la imatge; o en les fletxes verdes per a mapes adjacents.


METAR-TAF: